Time;durP1;ratioP1;P1;durP2;ratioP2;P2;SDS_P1;SDS_P2;PMS_P1;PMS_P2;Temp;Humidity;BMP_temperature;BMP_pressure;BME280_temperature;BME280_humidity;BME280_pressure;Samples;Min_cycle;Max_cycle;Signal;HPM_P1;HPM_P2
2022/08/29 00:00:17;;;;;;;0.80;0.40;;;16.60;99.90;;;;;;6115940;23;20417;-75
2022/08/29 00:02:46;;;;;;;0.88;0.60;;;16.60;99.90;;;;;;6112742;23;20109;-75
2022/08/29 00:05:13;;;;;;;0.68;0.40;;;16.60;99.90;;;;;;6113455;23;20398;-74
2022/08/29 00:07:40;;;;;;;0.43;0.30;;;16.70;99.90;;;;;;6114702;23;20037;-75
2022/08/29 00:10:07;;;;;;;0.52;0.40;;;16.60;99.90;;;;;;6115865;23;20022;-75
2022/08/29 00:12:35;;;;;;;0.65;0.40;;;16.60;99.90;;;;;;6115019;23;20058;-75
2022/08/29 00:15:03;;;;;;;0.68;0.52;;;16.70;99.90;;;;;;6116906;23;20029;-75
2022/08/29 00:17:30;;;;;;;0.68;0.40;;;16.60;99.90;;;;;;6114933;23;20085;-75
2022/08/29 00:19:56;;;;;;;0.70;0.30;;;16.60;99.90;;;;;;6115856;23;20033;-75
2022/08/29 00:22:23;;;;;;;0.38;0.30;;;16.60;99.90;;;;;;6114869;23;20029;-75
2022/08/29 00:24:50;;;;;;;0.75;0.50;;;16.60;99.90;;;;;;6115786;23;20540;-75
2022/08/29 00:27:17;;;;;;;0.40;0.30;;;16.60;99.90;;;;;;6089074;23;20026;-75
2022/08/29 00:29:44;;;;;;;0.55;0.43;;;16.60;99.90;;;;;;6116292;23;20044;-75
2022/08/29 00:32:10;;;;;;;0.30;0.30;;;16.60;99.90;;;;;;6115416;23;20028;-75
2022/08/29 00:34:37;;;;;;;0.25;0.25;;;16.60;99.90;;;;;;6114763;23;20022;-75
2022/08/29 00:37:04;;;;;;;0.28;0.28;;;16.60;99.90;;;;;;6087641;23;20138;-75
2022/08/29 00:39:31;;;;;;;0.75;0.57;;;16.50;99.90;;;;;;6116089;23;20026;-74
2022/08/29 00:41:58;;;;;;;0.25;0.25;;;16.50;99.90;;;;;;6113254;23;20461;-75
2022/08/29 00:44:25;;;;;;;0.77;0.50;;;16.50;99.90;;;;;;6114628;23;20046;-76
2022/08/29 00:46:54;;;;;;;0.65;0.38;;;16.50;99.90;;;;;;6114937;23;20034;-75
2022/08/29 00:49:35;;;;;;;0.40;0.40;;;16.40;99.90;;;;;;6090333;23;20104;-75
2022/08/29 00:52:06;;;;;;;0.43;0.30;;;16.40;99.90;;;;;;6114981;23;20397;-74
2022/08/29 00:54:33;;;;;;;1.00;0.32;;;16.40;99.90;;;;;;6115832;23;20029;-74
2022/08/29 00:57:00;;;;;;;0.30;0.30;;;16.30;99.90;;;;;;6113056;23;20065;-74
2022/08/29 00:59:32;;;;;;;0.38;0.30;;;16.30;99.90;;;;;;6114226;23;20030;-74
2022/08/29 01:01:59;;;;;;;0.30;0.20;;;16.30;99.90;;;;;;6113496;23;20026;-74
2022/08/29 01:04:26;;;;;;;0.43;0.30;;;16.30;99.90;;;;;;6115365;23;20018;-77
2022/08/29 01:06:53;;;;;;;0.30;0.20;;;16.20;99.90;;;;;;6114568;23;20346;-74
2022/08/29 01:09:20;;;;;;;0.50;0.30;;;16.20;99.90;;;;;;6089717;23;20022;-74
2022/08/29 01:14:33;;;;;;;0.25;0.25;;;16.20;99.90;;;;;;6114155;23;20081;-75
2022/08/29 01:17:04;;;;;;;0.20;0.20;;;16.20;99.90;;;;;;6110995;23;20026;-74
2022/08/29 01:19:45;;;;;;;0.47;0.35;;;16.20;99.90;;;;;;6114697;23;20026;-75
2022/08/29 01:22:24;;;;;;;0.88;0.32;;;16.20;99.90;;;;;;6113430;23;20387;-74
2022/08/29 01:24:51;;;;;;;0.25;0.20;;;16.20;99.90;;;;;;6116079;23;20026;-74
2022/08/29 01:27:20;;;;;;;0.20;0.20;;;16.30;99.90;;;;;;6088569;23;20033;-74
2022/08/29 01:29:47;;;;;;;0.73;0.38;;;16.30;99.90;;;;;;6089863;23;20065;-74
2022/08/29 01:34:59;;;;;;;0.75;0.40;;;16.20;99.90;;;;;;6142001;23;20782;-92
2022/08/29 01:37:33;;;;;;;0.40;0.20;;;16.30;99.90;;;;;;6106170;23;20072;-91
2022/08/29 01:40:03;;;;;;;0.38;0.20;;;16.20;99.90;;;;;;6108147;23;20041;-91
2022/08/29 01:42:30;;;;;;;0.30;0.30;;;16.30;99.90;;;;;;6107994;23;20017;-91
2022/08/29 01:45:06;;;;;;;0.20;0.20;;;16.30;99.90;;;;;;6109914;23;20052;-91
2022/08/29 01:47:38;;;;;;;0.45;0.40;;;16.30;99.90;;;;;;6108230;23;20021;-92
2022/08/29 01:50:13;;;;;;;0.25;0.22;;;16.20;99.90;;;;;;6104965;23;20036;-92
2022/08/29 01:52:49;;;;;;;0.25;0.25;;;16.20;99.90;;;;;;6104782;23;20018;-94
2022/08/29 01:55:16;;;;;;;0.32;0.20;;;16.30;99.90;;;;;;6105488;23;20384;-92
2022/08/29 01:57:44;;;;;;;0.68;0.30;;;16.30;99.90;;;;;;6103697;23;20084;-92
2022/08/29 02:00:12;;;;;;;0.47;0.25;;;16.30;99.90;;;;;;6105493;23;20025;-92
2022/08/29 02:02:59;;;;;;;0.43;0.30;;;16.30;99.90;;;;;;6106881;23;20077;-92
2022/08/29 02:06:14;;;;;;;0.30;0.30;;;16.30;99.90;;;;;;6115935;23;20398;-92
2022/08/29 02:10:08;;;;;;;0.20;0.13;;;16.30;99.90;;;;;;6140993;23;20019;-92
2022/08/29 02:13:20;;;;;;;0.50;0.22;;;16.30;99.90;;;;;;6043449;23;20033;-93
2022/08/29 02:16:42;;;;;;;0.40;0.25;;;16.20;99.90;;;;;;6041916;23;20037;-93
2022/08/29 02:19:38;;;;;;;0.40;0.30;;;16.20;99.90;;;;;;6046930;23;20019;-92
2022/08/29 02:22:21;;;;;;;0.35;0.28;;;16.20;99.90;;;;;;6018360;23;20487;-92
2022/08/29 02:24:54;;;;;;;0.38;0.30;;;16.20;99.90;;;;;;6018171;23;20110;-92
2022/08/29 02:27:44;;;;;;;0.10;0.10;;;16.20;99.90;;;;;;6016624;23;20019;-92
2022/08/29 02:30:24;;;;;;;0.20;0.20;;;16.10;99.90;;;;;;6027256;23;20509;-92
2022/08/29 02:33:00;;;;;;;0.13;0.13;;;16.10;99.90;;;;;;6029651;23;20025;-91
2022/08/29 02:35:35;;;;;;;0.47;0.30;;;16.10;99.90;;;;;;6074227;23;20419;-91
2022/08/29 02:38:08;;;;;;;0.13;0.13;;;16.10;99.90;;;;;;6098237;23;20018;-89
2022/08/29 02:40:36;;;;;;;0.57;0.30;;;16.10;99.90;;;;;;6072448;23;20101;-92
2022/08/29 02:43:03;;;;;;;0.40;0.40;;;16.10;99.90;;;;;;6075878;23;20097;-91
2022/08/29 02:45:31;;;;;;;0.32;0.20;;;16.10;99.90;;;;;;6098325;23;20081;-92
2022/08/29 02:48:01;;;;;;;0.22;0.22;;;16.00;99.90;;;;;;6100522;23;20077;-91
2022/08/29 02:50:28;;;;;;;1.05;0.43;;;16.00;99.90;;;;;;6100990;23;20355;-90
2022/08/29 02:52:58;;;;;;;0.40;0.30;;;16.00;99.90;;;;;;6099649;23;20033;-91
2022/08/29 02:55:29;;;;;;;0.38;0.38;;;16.00;99.90;;;;;;6098845;23;20021;-91
2022/08/29 02:57:57;;;;;;;0.20;0.15;;;16.00;99.90;;;;;;6101436;23;20093;-91
2022/08/29 03:00:25;;;;;;;0.22;0.20;;;16.00;99.90;;;;;;6096917;23;20022;-91
2022/08/29 03:02:54;;;;;;;0.40;0.30;;;16.00;99.90;;;;;;6098495;23;20468;-92
2022/08/29 03:05:26;;;;;;;0.20;0.20;;;16.00;99.90;;;;;;6099422;23;20026;-91
2022/08/29 03:08:01;;;;;;;0.15;0.15;;;16.00;99.90;;;;;;6099123;23;20717;-92
2022/08/29 03:10:32;;;;;;;0.20;0.20;;;16.00;99.90;;;;;;6103151;23;20065;-91
2022/08/29 03:13:07;;;;;;;0.20;0.20;;;16.00;99.90;;;;;;6159838;23;20021;-91
2022/08/29 03:15:39;;;;;;;0.15;0.15;;;16.00;99.90;;;;;;6143578;23;20032;-92
2022/08/29 03:18:13;;;;;;;0.20;0.20;;;16.00;99.90;;;;;;6132608;23;20020;-91
2022/08/29 03:20:41;;;;;;;0.20;0.20;;;16.00;99.90;;;;;;6133615;23;20043;-91
2022/08/29 03:23:16;;;;;;;0.20;0.20;;;16.00;99.90;;;;;;6132400;23;20048;-91
2022/08/29 03:25:45;;;;;;;0.40;0.30;;;16.00;99.90;;;;;;6132902;23;20036;-91
2022/08/29 03:28:12;;;;;;;0.50;0.20;;;16.00;99.90;;;;;;6133215;23;20021;-91
2022/08/29 03:30:39;;;;;;;0.32;0.30;;;16.00;99.90;;;;;;6133825;23;20063;-91
2022/08/29 03:33:06;;;;;;;0.50;0.40;;;16.00;99.90;;;;;;6130005;23;20099;-91
2022/08/29 03:35:37;;;;;;;0.50;0.30;;;16.00;99.90;;;;;;6106346;23;20516;-92
2022/08/29 03:38:04;;;;;;;0.25;0.20;;;16.00;99.90;;;;;;6126117;23;20029;-91
2022/08/29 03:40:32;;;;;;;0.47;0.28;;;16.00;99.90;;;;;;6125542;23;20036;-91
2022/08/29 03:42:59;;;;;;;0.32;0.30;;;16.00;99.90;;;;;;6124945;23;20017;-91
2022/08/29 03:45:32;;;;;;;0.63;0.38;;;16.00;99.90;;;;;;6126383;23;20128;-91
2022/08/29 03:47:59;;;;;;;0.52;0.30;;;16.00;99.90;;;;;;6127918;23;20330;-91
2022/08/29 03:50:27;;;;;;;0.20;0.20;;;16.00;99.90;;;;;;6127565;23;20024;-90
2022/08/29 03:52:55;;;;;;;0.20;0.20;;;16.00;99.90;;;;;;6157984;23;20028;-90
2022/08/29 03:55:23;;;;;;;0.38;0.30;;;16.00;99.90;;;;;;6134686;23;20025;-92
2022/08/29 03:57:50;;;;;;;0.20;0.20;;;16.00;99.90;;;;;;6134863;23;20021;-91
2022/08/29 04:00:20;;;;;;;0.93;0.50;;;16.00;99.90;;;;;;6130848;23;20025;-93
2022/08/29 04:02:52;;;;;;;0.63;0.35;;;16.00;99.90;;;;;;6107516;23;20025;-92
2022/08/29 04:05:24;;;;;;;0.35;0.35;;;15.90;99.90;;;;;;6130832;23;20024;-91
2022/08/29 04:07:56;;;;;;;0.30;0.22;;;15.90;99.90;;;;;;6105966;23;20100;-91
2022/08/29 04:10:26;;;;;;;0.28;0.20;;;15.90;99.90;;;;;;6131407;23;20095;-90
2022/08/29 04:12:56;;;;;;;0.20;0.20;;;15.80;99.90;;;;;;6126480;23;20084;-92
2022/08/29 04:15:27;;;;;;;1.83;0.40;;;15.80;99.90;;;;;;6128258;23;20036;-92
2022/08/29 04:17:58;;;;;;;0.32;0.22;;;15.80;99.90;;;;;;6130780;23;20090;-91
2022/08/29 04:20:27;;;;;;;1.15;0.55;;;15.80;99.90;;;;;;6132480;23;20025;-91
2022/08/29 04:22:55;;;;;;;0.50;0.40;;;15.70;99.90;;;;;;6130424;23;20116;-91
2022/08/29 04:25:23;;;;;;;0.38;0.30;;;15.70;99.90;;;;;;6129819;23;20029;-91
2022/08/29 04:27:54;;;;;;;0.35;0.35;;;15.60;99.90;;;;;;6129125;23;20025;-91
2022/08/29 04:30:22;;;;;;;0.85;0.40;;;15.60;99.90;;;;;;6130742;23;20101;-91
2022/08/29 04:32:50;;;;;;;0.63;0.40;;;15.50;99.90;;;;;;6130661;23;20083;-91
2022/08/29 04:35:17;;;;;;;0.75;0.30;;;15.40;99.90;;;;;;6152875;23;20096;-92
2022/08/29 04:37:45;;;;;;;0.65;0.40;;;15.40;99.90;;;;;;6135834;23;20021;-90
2022/08/29 04:40:14;;;;;;;0.75;0.40;;;15.40;99.90;;;;;;6132030;23;20017;-91
2022/08/29 04:42:41;;;;;;;0.57;0.45;;;15.40;99.90;;;;;;6130934;23;20029;-93
2022/08/29 04:45:13;;;;;;;0.40;0.30;;;15.30;99.90;;;;;;6132826;23;20020;-92
2022/08/29 04:47:41;;;;;;;0.90;0.40;;;15.30;99.90;;;;;;6133803;23;20045;-93
2022/08/29 04:50:11;;;;;;;1.08;0.40;;;15.30;99.90;;;;;;6133702;23;20014;-91
2022/08/29 04:52:39;;;;;;;0.45;0.40;;;15.30;99.90;;;;;;6133379;23;20033;-91
2022/08/29 04:55:12;;;;;;;0.30;0.30;;;15.30;99.90;;;;;;6133901;23;20017;-92
2022/08/29 04:57:59;;;;;;;0.30;0.30;;;15.30;99.90;;;;;;6138614;23;20021;-93
2022/08/29 05:00:45;;;;;;;0.20;0.20;;;15.40;99.90;;;;;;6138789;23;20112;-93
2022/08/29 05:03:31;;;;;;;0.20;0.20;;;15.40;99.90;;;;;;6133887;23;20071;-92
2022/08/29 05:06:15;;;;;;;0.40;0.40;;;15.40;99.90;;;;;;6135742;23;20180;-93
2022/08/29 05:09:38;;;;;;;0.30;0.30;;;15.40;99.90;;;;;;6165475;23;20039;-94
2022/08/29 05:12:48;;;;;;;0.15;0.10;;;15.30;99.90;;;;;;6136684;23;20127;-92
2022/08/29 05:16:31;;;;;;;;;;;;;;;;;;;;;
2022/08/29 05:23:18;;;;;;;0.50;0.40;;;15.30;99.90;;;;;;6064182;23;20033;-92
2022/08/29 05:25:45;;;;;;;0.13;0.10;;;15.30;99.90;;;;;;6081767;23;20047;-93
2022/08/29 05:28:23;;;;;;;0.40;0.40;;;15.20;99.90;;;;;;6087986;23;20049;-91
2022/08/29 05:30:55;;;;;;;0.35;0.32;;;15.30;99.90;;;;;;6119228;23;20018;-91
2022/08/29 05:33:32;;;;;;;0.35;0.30;;;15.20;99.90;;;;;;6095487;23;20022;-92
2022/08/29 05:36:04;;;;;;;0.22;0.22;;;15.30;99.90;;;;;;6082510;23;20045;-93
2022/08/29 05:39:26;;;;;;;0.43;0.40;;;15.30;99.90;;;;;;6094723;23;20489;-92
2022/08/29 05:42:49;;;;;;;;;;;;;;;;;;;;;
2022/08/29 05:45:33;;;;;;;0.38;0.30;;;15.40;99.90;;;;;;6187766;23;20017;-92
2022/08/29 05:48:17;;;;;;;0.45;0.45;;;15.40;99.90;;;;;;6162597;23;20017;-92
2022/08/29 05:50:53;;;;;;;0.22;0.20;;;15.40;99.90;;;;;;6135921;23;20343;-91
2022/08/29 05:53:20;;;;;;;0.45;0.30;;;15.40;99.90;;;;;;6137194;23;20021;-91
2022/08/29 05:55:48;;;;;;;1.33;0.30;;;15.50;99.90;;;;;;6138266;23;20032;-91
2022/08/29 05:58:15;;;;;;;0.57;0.40;;;15.50;99.90;;;;;;6136564;23;20028;-91
2022/08/29 06:00:43;;;;;;;0.52;0.35;;;15.60;99.90;;;;;;6139783;23;20099;-91
2022/08/29 06:03:12;;;;;;;1.10;0.30;;;15.60;99.90;;;;;;6137874;23;20029;-92
2022/08/29 06:05:51;;;;;;;0.80;0.40;;;15.60;99.90;;;;;;6137277;23;20048;-93
2022/08/29 06:08:32;;;;;;;0.43;0.35;;;15.70;99.90;;;;;;6136290;23;20020;-93
2022/08/29 06:11:56;;;;;;;0.50;0.50;;;15.70;99.90;;;;;;6138520;23;20361;-94
2022/08/29 06:15:07;;;;;;;0.38;0.30;;;15.80;99.90;;;;;;6207744;23;20028;-94
2022/08/29 06:21:39;;;;;;;0.60;0.40;;;16.10;99.90;;;;;;6185176;23;20055;-95
2022/08/29 06:25:00;;;;;;;0.35;0.20;;;16.20;99.90;;;;;;6170124;23;20017;-94
2022/08/29 06:28:27;;;;;;;0.40;0.30;;;16.40;99.90;;;;;;6148436;23;20039;-95
2022/08/29 06:31:36;;;;;;;0.40;0.30;;;16.50;99.90;;;;;;6210114;23;20059;-95
2022/08/29 06:34:30;;;;;;;0.52;0.30;;;16.60;99.90;;;;;;6155345;23;20133;-95
2022/08/29 06:37:29;;;;;;;0.52;0.35;;;16.70;99.90;;;;;;6148281;23;20079;-96
2022/08/29 06:40:21;;;;;;;0.20;0.20;;;16.80;99.90;;;;;;6166671;23;20032;-95
2022/08/29 06:47:23;;;;;;;0.50;0.32;;;17.10;99.90;;;;;;6097246;23;20029;-96
2022/08/29 06:50:46;;;;;;;0.60;0.50;;;17.30;99.90;;;;;;6052082;23;20075;-95
2022/08/29 06:53:36;;;;;;;0.40;0.30;;;17.50;99.90;;;;;;6009600;23;20349;-96
2022/08/29 06:56:50;;;;;;;0.43;0.40;;;17.60;99.90;;;;;;5940949;24;20452;-95
2022/08/29 06:59:55;;;;;;;0.52;0.38;;;17.70;99.90;;;;;;5989273;24;20467;-96
2022/08/29 07:03:02;;;;;;;0.90;0.50;;;17.80;99.90;;;;;;5986413;23;20402;-96
2022/08/29 07:06:12;;;;;;;0.57;0.40;;;17.90;99.90;;;;;;5990396;23;20184;-96
2022/08/29 07:09:06;;;;;;;1.58;0.50;;;18.10;99.90;;;;;;5988235;24;20023;-94
2022/08/29 07:11:39;;;;;;;0.63;0.57;;;18.10;99.90;;;;;;5994592;23;20195;-95
2022/08/29 07:14:27;;;;;;;0.60;0.40;;;18.20;99.90;;;;;;5974437;23;20047;-95
2022/08/29 07:17:28;;;;;;;0.63;0.43;;;18.20;99.90;;;;;;6060926;23;20070;-96
2022/08/29 07:20:47;;;;;;;0.30;0.30;;;18.30;99.90;;;;;;6065994;23;20114;-95
2022/08/29 07:27:44;;;;;;;0.45;0.30;;;18.40;99.90;;;;;;6106897;23;20093;-94
2022/08/29 07:30:59;;;;;;;0.40;0.32;;;18.50;99.90;;;;;;6138925;23;20005;-96
2022/08/29 07:33:44;;;;;;;0.40;0.40;;;18.60;99.90;;;;;;6179101;23;20036;-96
2022/08/29 07:36:54;;;;;;;1.27;0.70;;;18.70;99.90;;;;;;6173957;23;20313;-94
2022/08/29 07:39:50;;;;;;;1.13;0.57;;;18.90;99.90;;;;;;6176313;23;20104;-94
2022/08/29 07:54:33;;;;;;;0.65;0.60;;;19.30;99.90;;;;;;6203939;23;20097;-96
2022/08/29 08:12:18;;;;;;;1.15;0.70;;;20.00;99.90;;;;;;6172432;23;20029;-88
2022/08/29 08:14:47;;;;;;;1.02;0.55;;;20.10;99.90;;;;;;6129371;23;20100;-88
2022/08/29 08:17:14;;;;;;;0.63;0.50;;;20.00;99.90;;;;;;6104671;23;20021;-89
2022/08/29 08:19:43;;;;;;;1.02;0.50;;;20.10;99.90;;;;;;6127580;23;20025;-89
2022/08/29 08:22:11;;;;;;;1.08;0.60;;;20.20;99.90;;;;;;6129857;23;20017;-89
2022/08/29 08:24:38;;;;;;;0.45;0.40;;;20.30;99.90;;;;;;6130417;23;20096;-89
2022/08/29 08:27:05;;;;;;;0.50;0.32;;;20.30;99.90;;;;;;6107376;23;20024;-89
2022/08/29 08:29:34;;;;;;;0.68;0.60;;;20.20;99.90;;;;;;6129985;23;20021;-88
2022/08/29 08:32:01;;;;;;;0.82;0.70;;;20.10;99.90;;;;;;6127856;23;20128;-89
2022/08/29 08:34:29;;;;;;;1.13;0.80;;;20.10;99.90;;;;;;6129937;23;20030;-88
2022/08/29 08:36:56;;;;;;;0.60;0.50;;;20.20;99.90;;;;;;6127848;23;20041;-89
2022/08/29 08:39:23;;;;;;;0.95;0.63;;;20.30;99.90;;;;;;6129730;23;20021;-89
2022/08/29 08:42:13;;;;;;;0.57;0.35;;;20.30;99.90;;;;;;6128640;23;20109;-88
2022/08/29 08:44:58;;;;;;;0.47;0.47;;;20.20;99.90;;;;;;6153587;23;20409;-88
2022/08/29 08:47:31;;;;;;;0.45;0.43;;;20.30;99.90;;;;;;6153766;23;20025;-89
2022/08/29 08:50:29;;;;;;;0.30;0.25;;;20.30;99.90;;;;;;6132196;23;20044;-86
2022/08/29 08:53:32;;;;;;;0.70;0.40;;;20.30;99.90;;;;;;6107259;23;20018;-88
2022/08/29 08:56:04;;;;;;;0.40;0.40;;;20.40;99.90;;;;;;6111576;23;20461;-87
2022/08/29 08:58:42;;;;;;;0.60;0.60;;;20.50;99.90;;;;;;6133091;23;20373;-89
2022/08/29 09:01:17;;;;;;;0.80;0.45;;;20.50;99.90;;;;;;6112474;23;20109;-89
2022/08/29 09:04:12;;;;;;;;;;;;;;;;;;;;;
2022/08/29 09:11:02;;;;;;;1.13;0.63;;;21.00;99.90;;;;;;6154722;23;20061;-90
2022/08/29 09:13:51;;;;;;;0.55;0.45;;;21.30;99.90;;;;;;6137467;23;20026;-88
2022/08/29 09:16:42;;;;;;;1.02;0.45;;;21.50;99.90;;;;;;6161931;23;20045;-88
2022/08/29 09:19:16;;;;;;;0.85;0.63;;;21.60;99.90;;;;;;6117928;23;20022;-91
2022/08/29 09:21:48;;;;;;;0.63;0.40;;;21.40;99.90;;;;;;6115842;23;20068;-89
2022/08/29 09:24:24;;;;;;;1.05;0.50;;;21.20;99.90;;;;;;6113546;23;20096;-89
2022/08/29 09:26:56;;;;;;;1.00;0.52;;;21.00;99.90;;;;;;6162286;23;20044;-90
2022/08/29 09:29:42;;;;;;;1.08;0.60;;;20.90;99.90;;;;;;6145416;23;20076;-90
2022/08/29 09:32:15;;;;;;;1.08;0.52;;;20.90;99.90;;;;;;6142589;23;20021;-90
2022/08/29 09:38:16;;;;;;;0.57;0.50;;;21.10;99.90;;;;;;6141688;23;20453;-85
2022/08/29 09:40:50;;;;;;;0.95;0.70;;;21.40;99.90;;;;;;6150756;23;20017;-85
2022/08/29 09:43:37;;;;;;;0.70;0.63;;;21.50;99.90;;;;;;6122764;23;20025;-81
2022/08/29 09:46:09;;;;;;;0.68;0.52;;;21.60;99.90;;;;;;6126426;23;20028;-85
2022/08/29 09:48:39;;;;;;;1.15;0.60;;;21.60;99.90;;;;;;6150211;23;20116;-88
2022/08/29 09:51:12;;;;;;;0.60;0.40;;;21.60;99.90;;;;;;6128223;23;20048;-87
2022/08/29 09:53:39;;;;;;;0.50;0.47;;;21.70;99.90;;;;;;6151928;23;20362;-87
2022/08/29 09:56:07;;;;;;;0.60;0.50;;;21.60;99.90;;;;;;6124419;23;20021;-84
2022/08/29 09:58:38;;;;;;;0.30;0.30;;;21.60;99.90;;;;;;6126306;23;20056;-86
2022/08/29 10:01:15;;;;;;;1.00;0.63;;;21.80;99.90;;;;;;6127941;23;20026;-91
2022/08/29 10:03:51;;;;;;;0.40;0.40;;;21.90;99.90;;;;;;6127121;23;20018;-88
2022/08/29 10:06:26;;;;;;;0.85;0.60;;;22.00;99.90;;;;;;6127128;23;20024;-84
2022/08/29 10:09:12;;;;;;;0.82;0.60;;;22.10;99.90;;;;;;6125444;23;20029;-82
2022/08/29 10:11:49;;;;;;;0.88;0.40;;;22.10;99.90;;;;;;6123542;23;20028;-85
2022/08/29 10:14:30;;;;;;;0.65;0.60;;;22.40;99.90;;;;;;6104138;23;20377;-83
2022/08/29 10:20:10;;;;;;;0.70;0.50;;;22.80;99.90;;;;;;6120149;23;20045;-86
2022/08/29 10:22:47;;;;;;;1.00;0.70;;;23.00;99.90;;;;;;6100337;23;20108;-86
2022/08/29 10:25:47;;;;;;;0.30;0.30;;;23.20;99.90;;;;;;6121835;23;20021;-85
2022/08/29 10:28:32;;;;;;;0.40;0.40;;;23.40;99.90;;;;;;6073857;23;20022;-85
2022/08/29 10:31:07;;;;;;;0.63;0.57;;;23.20;99.80;;;;;;6127307;23;20381;-86
2022/08/29 10:33:51;;;;;;;0.75;0.63;;;23.00;99.90;;;;;;6102933;23;20029;-86
2022/08/29 10:36:24;;;;;;;1.02;0.80;;;22.90;99.90;;;;;;6149029;23;20028;-87
2022/08/29 10:39:09;;;;;;;0.82;0.50;;;22.80;99.70;;;;;;6148586;23;20021;-84
2022/08/29 10:41:52;;;;;;;1.10;0.90;;;22.80;99.60;;;;;;6150523;23;20476;-86
2022/08/29 10:44:20;;;;;;;0.70;0.60;;;22.80;99.30;;;;;;6104285;23;20029;-85
2022/08/29 10:47:11;;;;;;;1.33;0.75;;;22.70;99.40;;;;;;6147291;23;20353;-84
2022/08/29 10:49:54;;;;;;;0.82;0.50;;;22.60;99.40;;;;;;6153911;23;20062;-85
2022/08/29 10:52:30;;;;;;;1.17;0.63;;;22.70;99.30;;;;;;6125661;23;20472;-84
2022/08/29 10:55:15;;;;;;;1.30;0.90;;;22.60;98.90;;;;;;6101985;23;20727;-84
2022/08/29 10:57:52;;;;;;;0.68;0.60;;;22.80;99.00;;;;;;6152965;23;20029;-90
2022/08/29 11:00:23;;;;;;;0.65;0.65;;;23.10;99.10;;;;;;6153597;23;20377;-87
2022/08/29 11:02:52;;;;;;;0.93;0.70;;;23.50;98.70;;;;;;6101982;23;20080;-85
2022/08/29 11:05:26;;;;;;;0.65;0.65;;;23.70;98.00;;;;;;6150885;23;20053;-86
2022/08/29 11:08:02;;;;;;;1.17;0.70;;;23.80;97.40;;;;;;6104373;23;20076;-85
2022/08/29 11:10:39;;;;;;;0.68;0.60;;;23.70;97.40;;;;;;6102197;23;20085;-88
2022/08/29 11:13:14;;;;;;;0.90;0.70;;;23.50;97.40;;;;;;6103850;23;20021;-91
2022/08/29 11:15:57;;;;;;;0.90;0.60;;;23.40;97.60;;;;;;6103362;23;20025;-83
2022/08/29 11:18:37;;;;;;;0.98;0.70;;;23.40;97.80;;;;;;6103478;23;20096;-87
2022/08/29 11:21:14;;;;;;;1.30;0.70;;;23.50;97.60;;;;;;6101949;23;20029;-87
2022/08/29 11:23:45;;;;;;;1.05;0.82;;;23.60;96.80;;;;;;6148009;23;20025;-84
2022/08/29 11:26:21;;;;;;;0.75;0.60;;;23.70;97.40;;;;;;6098504;23;20445;-87
2022/08/29 11:29:01;;;;;;;1.38;0.75;;;23.80;96.70;;;;;;6149988;23;20025;-86
2022/08/29 11:31:57;;;;;;;0.85;0.60;;;23.90;96.90;;;;;;6150083;23;20022;-91
2022/08/29 11:34:36;;;;;;;0.68;0.60;;;24.10;96.60;;;;;;6149313;23;20453;-85
2022/08/29 11:37:06;;;;;;;0.52;0.45;;;24.10;96.10;;;;;;6157332;23;20025;-86
2022/08/29 11:39:51;;;;;;;0.95;0.60;;;24.30;96.10;;;;;;6154864;23;20041;-84
2022/08/29 11:42:21;;;;;;;0.50;0.40;;;24.40;95.90;;;;;;6154917;23;20080;-85
2022/08/29 11:45:10;;;;;;;0.60;0.40;;;24.60;96.20;;;;;;6119355;23;20588;-88
2022/08/29 11:47:45;;;;;;;1.30;0.50;;;24.70;95.60;;;;;;6129098;23;20017;-88
2022/08/29 11:50:20;;;;;;;1.08;0.60;;;24.60;95.50;;;;;;6156247;23;20084;-85
2022/08/29 11:53:14;;;;;;;1.10;0.70;;;24.60;95.80;;;;;;6131430;23;20040;-87
2022/08/29 11:55:43;;;;;;;0.63;0.47;;;24.40;95.80;;;;;;6122729;23;20017;-87
2022/08/29 11:58:13;;;;;;;0.73;0.50;;;24.30;95.90;;;;;;6132734;23;20021;-88
2022/08/29 12:00:53;;;;;;;0.82;0.60;;;24.40;95.90;;;;;;6156939;23;20056;-89
2022/08/29 12:03:32;;;;;;;1.90;0.90;;;24.30;96.60;;;;;;6130579;23;20520;-85
2022/08/29 12:06:20;;;;;;;1.15;0.73;;;24.30;97.00;;;;;;6181311;23;20017;-88
2022/08/29 12:08:54;;;;;;;1.45;0.90;;;24.10;97.60;;;;;;6130936;23;20031;-85
2022/08/29 12:12:02;;;;;;;1.10;0.80;;;24.10;97.90;;;;;;6154762;23;20032;-85
2022/08/29 12:14:49;;;;;;;1.30;0.90;;;23.90;97.80;;;;;;6179692;23;20021;-87
2022/08/29 12:17:18;;;;;;;1.10;0.80;;;23.70;97.70;;;;;;6107839;23;20025;-87
2022/08/29 12:19:58;;;;;;;0.60;0.50;;;23.60;97.70;;;;;;6155841;23;20041;-87
2022/08/29 12:22:50;;;;;;;0.90;0.65;;;23.60;98.10;;;;;;6154802;23;20029;-87
2022/08/29 12:25:26;;;;;;;0.50;0.50;;;23.80;97.60;;;;;;6155811;23;20021;-87
2022/08/29 12:27:56;;;;;;;2.67;1.00;;;23.70;97.50;;;;;;6180594;23;20044;-85
2022/08/29 12:30:22;;;;;;;1.45;0.95;;;23.60;97.90;;;;;;6180690;23;20029;-88
2022/08/29 12:33:06;;;;;;;1.10;0.80;;;23.60;98.00;;;;;;6130135;23;20605;-86
2022/08/29 12:35:48;;;;;;;0.63;0.52;;;23.60;98.40;;;;;;6130495;23;20029;-87
2022/08/29 12:38:21;;;;;;;1.30;0.63;;;23.90;98.40;;;;;;6154657;23;20017;-87
2022/08/29 12:41:21;;;;;;;1.25;1.10;;;24.10;97.60;;;;;;6131598;23;20156;-86
2022/08/29 12:43:50;;;;;;;1.40;0.70;;;25.00;96.90;;;;;;6154382;23;20021;-84
2022/08/29 12:46:34;;;;;;;1.00;0.80;;;25.30;96.80;;;;;;6106784;23;20036;-86
2022/08/29 12:49:13;;;;;;;1.10;0.70;;;26.10;96.20;;;;;;6130652;23;20021;-85
2022/08/29 12:51:40;;;;;;;1.25;0.80;;;26.50;95.70;;;;;;6106163;23;20095;-84
2022/08/29 12:54:10;;;;;;;1.23;0.70;;;26.30;95.20;;;;;;6130591;23;20049;-86
2022/08/29 12:56:47;;;;;;;1.10;0.80;;;26.00;95.00;;;;;;6129472;23;20021;-83
2022/08/29 12:59:18;;;;;;;1.35;0.90;;;25.60;95.50;;;;;;6105545;23;20344;-90
2022/08/29 13:01:47;;;;;;;1.05;0.77;;;25.60;95.10;;;;;;6102748;23;20044;-83
2022/08/29 13:04:18;;;;;;;1.00;0.70;;;25.50;95.20;;;;;;6127665;23;20024;-87
2022/08/29 13:06:54;;;;;;;1.30;0.90;;;25.40;95.30;;;;;;6128864;23;20021;-86
2022/08/29 13:09:38;;;;;;;1.30;0.98;;;25.30;94.80;;;;;;6130136;23;20029;-86
2022/08/29 13:12:15;;;;;;;0.60;0.60;;;25.70;95.30;;;;;;6131627;23;20021;-84
2022/08/29 13:15:06;;;;;;;1.13;0.77;;;26.00;94.30;;;;;;6131260;23;20341;-88
2022/08/29 13:17:35;;;;;;;1.15;0.60;;;25.70;94.30;;;;;;6157891;23;20025;-88
2022/08/29 13:20:40;;;;;;;0.70;0.70;;;25.60;94.60;;;;;;6133782;23;20024;-86
2022/08/29 13:23:26;;;;;;;1.10;0.80;;;25.20;94.40;;;;;;6180495;23;20024;-87
2022/08/29 13:26:08;;;;;;;1.05;0.63;;;25.00;94.70;;;;;;6153425;23;20021;-84
2022/08/29 13:28:44;;;;;;;0.95;0.70;;;24.90;94.50;;;;;;6155597;23;20017;-86
2022/08/29 13:31:10;;;;;;;1.17;0.70;;;24.90;94.80;;;;;;6180099;23;20024;-84
2022/08/29 13:33:44;;;;;;;1.00;0.75;;;25.00;94.60;;;;;;6179331;23;20021;-84
2022/08/29 13:36:26;;;;;;;0.90;0.70;;;25.00;94.30;;;;;;6155308;23;20021;-85
2022/08/29 13:39:16;;;;;;;0.82;0.60;;;25.50;94.50;;;;;;6180108;23;20028;-84
2022/08/29 13:41:43;;;;;;;0.70;0.60;;;26.00;93.50;;;;;;6153941;23;20071;-84
2022/08/29 13:44:21;;;;;;;1.13;0.88;;;26.20;93.50;;;;;;6130073;23;20169;-86
2022/08/29 13:46:50;;;;;;;0.90;0.80;;;26.50;93.10;;;;;;6105991;23;20028;-89
2022/08/29 13:49:22;;;;;;;0.93;0.70;;;26.70;92.80;;;;;;6131659;23;20025;-89
2022/08/29 13:51:49;;;;;;;1.13;0.80;;;27.30;92.40;;;;;;6129802;23;20391;-84
2022/08/29 13:54:16;;;;;;;1.33;1.00;;;28.10;92.10;;;;;;6130000;23;20313;-85
2022/08/29 13:56:47;;;;;;;1.02;0.80;;;28.80;91.50;;;;;;6129619;23;20021;-84
2022/08/29 13:59:15;;;;;;;0.98;0.75;;;29.70;91.00;;;;;;6152489;23;20080;-84
2022/08/29 14:01:42;;;;;;;1.13;0.80;;;29.00;90.00;;;;;;6128525;23;20052;-84
2022/08/29 14:04:29;;;;;;;0.85;0.65;;;28.20;90.60;;;;;;6116834;23;20029;-88
2022/08/29 14:07:07;;;;;;;1.23;0.98;;;27.50;90.60;;;;;;6113579;23;20025;-86
2022/08/29 14:09:38;;;;;;;0.93;0.80;;;26.90;91.00;;;;;;6127966;23;20029;-87
2022/08/29 14:12:05;;;;;;;0.85;0.65;;;26.40;91.40;;;;;;6105362;23;20021;-88
2022/08/29 14:14:32;;;;;;;0.70;0.65;;;26.20;91.70;;;;;;6134025;23;20025;-88
2022/08/29 14:16:59;;;;;;;1.90;0.60;;;26.00;92.00;;;;;;6156875;23;20048;-87
2022/08/29 14:19:27;;;;;;;0.65;0.63;;;25.80;92.20;;;;;;6133792;23;20021;-87
2022/08/29 14:21:54;;;;;;;1.48;0.73;;;25.70;92.10;;;;;;6132045;23;20392;-83
2022/08/29 14:24:21;;;;;;;0.90;0.52;;;25.50;92.40;;;;;;6130616;23;20013;-84
2022/08/29 14:26:54;;;;;;;0.65;0.57;;;25.50;93.10;;;;;;6132278;23;20096;-83
2022/08/29 14:42:24;;;;;;;0.98;0.68;;;26.10;92.10;;;;;;5123087;27;20407;-75
2022/08/29 14:44:51;;;;;;;1.10;0.80;;;24.60;93.60;;;;;;5124834;28;20054;-75
2022/08/29 14:47:17;;;;;;;0.85;0.60;;;24.70;93.80;;;;;;5104171;28;20132;-77
2022/08/29 14:49:44;;;;;;;1.38;0.85;;;24.70;93.90;;;;;;5124536;27;20065;-76
2022/08/29 14:52:13;;;;;;;1.00;0.70;;;24.90;93.80;;;;;;5123435;27;20490;-75
2022/08/29 14:54:41;;;;;;;0.85;0.50;;;25.00;93.90;;;;;;5123919;27;20058;-74
2022/08/29 15:17:33;;;;;;;0.60;0.60;;;26.40;91.50;;;;;;5043519;28;20415;-74